Terminal Aerodrome Forecast
Issued by NWS

Home | Current Version | Previous Version | Text Only | Print | Product List | Glossary Off
Versions: 1 2 3 4 5 6 7 8 9 10 11 12 13 14 15 16 17 18

332
FTUS43 KICT 250520
TAFRSL
TAF
KRSL 250520Z 2506/2606 33014KT P6SM -SHRA OVC015
     FM250900 32012KT P6SM VCSH OVC015
      TEMPO 2511/2515 OVC008
     FM251500 33011KT P6SM VCSH OVC015
     FM251800 35011KT P6SM OVC025
     FM252000 36010KT P6SM OVC040
     FM260200 VRB04KT P6SM FEW250=

USA.gov is the U.S. government's official web portal to all federal, state and local government web resources and services.